createdAt,value
2023-02-25T00:01:58.000Z,8.8
2023-02-25T00:07:11.400Z,8.9
2023-02-25T00:12:38.516Z,8.8
2023-02-25T00:18:20.750Z,8.7
2023-02-25T00:24:15.809Z,8.2
2023-02-25T00:29:44.213Z,8.1
2023-02-25T00:35:01.807Z,8
2023-02-25T00:40:38.007Z,8
2023-02-25T00:46:17.106Z,8
2023-02-25T00:51:38.989Z,8
2023-02-25T00:57:32.729Z,8
2023-02-25T01:02:54.616Z,8
2023-02-25T01:08:41.675Z,7.9
2023-02-25T01:14:13.145Z,8
2023-02-25T01:19:40.917Z,7.9
2023-02-25T01:25:10.042Z,7.8
2023-02-25T01:30:44.667Z,7.8
2023-02-25T01:36:26.452Z,7.8
2023-02-25T01:41:58.365Z,7.8
2023-02-25T01:47:36.532Z,7.8
2023-02-25T01:52:57.486Z,7.8
2023-02-25T01:58:38.656Z,7.8
2023-02-25T02:04:16.895Z,7.8
2023-02-25T02:09:55.788Z,7.7
2023-02-25T02:15:27.072Z,7.8
2023-02-25T02:20:48.332Z,7.8
2023-02-25T02:26:37.879Z,7.8
2023-02-25T02:31:47.254Z,7.9
2023-02-25T02:37:31.309Z,8
2023-02-25T02:43:06.353Z,8
2023-02-25T02:48:56.592Z,8.2
2023-02-25T02:54:03.787Z,8.2
2023-02-25T02:59:59.047Z,8.2
2023-02-25T03:05:37.361Z,8.1
2023-02-25T03:10:55.769Z,7.9
2023-02-25T03:16:42.734Z,7.9
2023-02-25T03:22:19.906Z,7.8
2023-02-25T03:28:03.519Z,7.6
2023-02-25T03:33:35.823Z,7.7
2023-02-25T03:38:53.396Z,7.7
2023-02-25T03:44:28.384Z,7.9
2023-02-25T03:50:10.997Z,7.6
2023-02-25T03:55:45.125Z,7.8
2023-02-25T04:01:16.781Z,7.7
2023-02-25T04:12:11.832Z,7.3
2023-02-25T04:23:42.628Z,7.4
2023-02-25T04:29:05.228Z,7.3
2023-02-25T04:34:35.173Z,7.1
2023-02-25T04:40:27.943Z,7.1
2023-02-25T04:46:01.010Z,7.3
2023-02-25T04:51:19.290Z,7.1
2023-02-25T04:56:48.182Z,7
2023-02-25T05:02:38.038Z,6.6
2023-02-25T05:08:03.183Z,6.8
2023-02-25T05:13:50.321Z,6.8
2023-02-25T05:19:12.216Z,6.7
2023-02-25T05:25:05.455Z,6.8
2023-02-25T05:30:40.808Z,6.4
2023-02-25T05:35:53.855Z,6.1
2023-02-25T05:41:43.922Z,5.8
2023-02-25T05:47:13.225Z,5.7
2023-02-25T05:53:02.582Z,5.4
2023-02-25T05:58:10.136Z,5.6
2023-02-25T06:03:54.233Z,5.7
2023-02-25T06:09:47.972Z,5.7
2023-02-25T06:15:07.294Z,5.7
2023-02-25T06:20:53.123Z,5.7
2023-02-25T06:26:06.634Z,5.6
2023-02-25T06:31:51.274Z,5.5
2023-02-25T06:37:30.274Z,5.3
2023-02-25T06:43:03.465Z,5.3
2023-02-25T06:48:34.053Z,5.6
2023-02-25T06:54:14.765Z,5.6
2023-02-25T06:59:41.172Z,5.5
2023-02-25T07:05:20.387Z,5.5
2023-02-25T07:10:43.462Z,5.4
2023-02-25T07:16:13.318Z,5.5
2023-02-25T07:21:52.424Z,5.6
2023-02-25T07:38:44.764Z,5.1
2023-02-25T08:12:01.001Z,5.3
2023-02-25T08:17:56.897Z,5.8
2023-02-25T08:23:18.077Z,6
2023-02-25T08:28:50.250Z,5.8
2023-02-25T08:34:20.894Z,6
2023-02-25T08:40:07.767Z,6.1
2023-02-25T08:45:49.541Z,6.4
2023-02-25T08:51:16.079Z,6.4
2023-02-25T08:56:48.476Z,6.4
2023-02-25T09:02:34.251Z,6.5
2023-02-25T09:07:59.915Z,6.7
2023-02-25T09:13:24.542Z,7.2
2023-02-25T09:18:57.499Z,7.1
2023-02-25T09:24:43.948Z,7.3
2023-02-25T09:30:05.884Z,7.3
2023-02-25T09:35:41.347Z,7.7
2023-02-25T09:41:24.153Z,7.5
2023-02-25T09:47:08.365Z,7.8
2023-02-25T09:52:36.427Z,7.9
2023-02-25T09:58:07.647Z,8.6
2023-02-25T10:03:59.233Z,8.2
2023-02-25T10:09:39.292Z,7.9
2023-02-25T10:15:07.016Z,7.6
2023-02-25T10:20:36.311Z,7.3
2023-02-25T10:26:17.609Z,6.9
2023-02-25T10:31:36.240Z,6.9
2023-02-25T10:37:19.580Z,6.9
2023-02-25T10:43:08.840Z,7.1
2023-02-25T10:48:40.391Z,7
2023-02-25T10:54:11.260Z,7.6
2023-02-25T10:59:37.185Z,7.6
2023-02-25T11:05:24.835Z,7.5
2023-02-25T11:11:03.898Z,7.7
2023-02-25T11:16:33.387Z,8.1
2023-02-25T11:21:48.663Z,8
2023-02-25T11:27:39.087Z,7.9
2023-02-25T11:33:00.125Z,7.7
2023-02-25T11:38:53.145Z,7.5
2023-02-25T11:44:11.379Z,7.4
2023-02-25T11:49:59.766Z,7.3
2023-02-25T11:55:24.637Z,7.4
2023-02-25T12:00:50.767Z,7.2
2023-02-25T12:06:51.478Z,7.1
2023-02-25T12:12:22.972Z,7
2023-02-25T12:17:51.709Z,6.9
2023-02-25T12:28:50.493Z,6.6
2023-02-25T12:34:22.692Z,6.6
2023-02-25T12:45:56.212Z,6.7
2023-02-25T12:51:19.354Z,6.7
2023-02-25T12:56:52.222Z,6.6
2023-02-25T13:02:41.578Z,6.5
2023-02-25T13:08:00.481Z,6.4
2023-02-25T13:30:34.667Z,5.8
2023-02-25T13:47:10.943Z,6.7
2023-02-25T13:52:55.557Z,6.4
2023-02-25T13:58:19.438Z,6.1
2023-02-25T14:04:09.326Z,5.6
2023-02-25T14:09:39.999Z,5.6
2023-02-25T14:15:09.646Z,5.3
2023-02-25T14:20:57.610Z,5.2
2023-02-25T14:26:04.900Z,5.2
2023-02-25T14:31:51.453Z,5.4
2023-02-25T14:37:24.990Z,5.3
2023-02-25T14:42:49.606Z,5.4
2023-02-25T14:48:44.657Z,5.2
2023-02-25T14:54:05.335Z,5.2
2023-02-25T14:59:48.385Z,5.2
2023-02-25T15:05:08.470Z,5.4
2023-02-25T15:10:50.020Z,5.3
2023-02-25T15:16:13.914Z,5.4
2023-02-25T15:22:10.091Z,5.6
2023-02-25T15:27:44.720Z,5.9
2023-02-25T15:33:23.573Z,5.9
2023-02-25T15:38:34.120Z,6.1
2023-02-25T15:44:21.933Z,5.9
2023-02-25T15:50:01.652Z,5.7
2023-02-25T15:55:32.859Z,5.9
2023-02-25T16:01:03.885Z,5.8
2023-02-25T16:06:44.887Z,5.4
2023-02-25T16:12:19.090Z,5.3
2023-02-25T16:17:50.612Z,5.2
2023-02-25T16:23:05.501Z,5
2023-02-25T16:28:47.700Z,5.1
2023-02-25T16:34:21.155Z,4.9
2023-02-25T16:40:12.471Z,4.8
2023-02-25T16:45:42.415Z,4.7
2023-02-25T16:51:14.864Z,4.7
2023-02-25T16:56:46.691Z,4.7
2023-02-25T17:07:45.774Z,4.7
2023-02-25T17:13:14.013Z,4.6
2023-02-25T17:19:00.212Z,4.6
2023-02-25T17:24:33.395Z,4.5
2023-02-25T17:30:06.295Z,4.4
2023-02-25T17:35:29.727Z,4.4
2023-02-25T17:41:08.063Z,4.4
2023-02-25T17:46:58.748Z,4.4
2023-02-25T17:52:30.653Z,4.4
2023-02-25T17:57:48.241Z,4.4
2023-02-25T18:03:28.114Z,4.4
2023-02-25T18:08:51.994Z,4.3
2023-02-25T18:14:50.061Z,4.3
2023-02-25T18:20:09.082Z,4.3
2023-02-25T18:31:19.219Z,4.2
2023-02-25T18:42:19.119Z,4
2023-02-25T18:47:59.221Z,4.1
2023-02-25T18:53:31.497Z,4.1
2023-02-25T18:59:15.325Z,4
2023-02-25T19:04:38.981Z,4
2023-02-25T19:10:34.793Z,4.1
2023-02-25T19:15:57.693Z,4
2023-02-25T19:21:26.736Z,4
2023-02-25T19:27:05.716Z,4
2023-02-25T19:32:49.800Z,3.9
2023-02-25T19:38:19.305Z,3.9
2023-02-25T19:43:49.466Z,3.9
2023-02-25T19:49:17.613Z,3.9
2023-02-25T19:54:53.099Z,3.7
2023-02-25T20:00:23.957Z,3.7
2023-02-25T20:06:13.382Z,3.8
2023-02-25T20:11:23.167Z,3.8
2023-02-25T20:17:05.997Z,3.8
2023-02-25T20:22:38.468Z,3.9
2023-02-25T20:28:12.234Z,4
2023-02-25T20:33:54.170Z,4
2023-02-25T20:39:19.720Z,3.8
2023-02-25T20:44:51.913Z,3.6
2023-02-25T20:50:49.582Z,3.5
2023-02-25T20:56:15.846Z,3.5
2023-02-25T21:01:36.133Z,3.5
2023-02-25T21:07:26.698Z,3.6
2023-02-25T21:12:45.567Z,3.6
2023-02-25T21:18:17.662Z,3.5
2023-02-25T21:23:59.148Z,3.5
2023-02-25T21:29:24.993Z,3.6
2023-02-25T21:34:54.554Z,3.5
2023-02-25T21:40:46.626Z,3.5
2023-02-25T21:51:40.176Z,3.3
2023-02-25T21:57:14.739Z,3.3
2023-02-25T22:03:06.171Z,3.3
2023-02-25T22:08:42.025Z,3.4
2023-02-25T22:14:07.039Z,3.5
2023-02-25T22:19:40.397Z,3.4
2023-02-25T22:25:20.499Z,3.4
2023-02-25T22:30:45.560Z,3.4
2023-02-25T22:36:10.127Z,3.3
2023-02-25T22:41:44.263Z,3.2
2023-02-25T22:47:27.237Z,3.2
2023-02-25T22:53:04.196Z,3.2
2023-02-25T22:58:39.721Z,3.3
2023-02-25T23:03:55.646Z,3.1
2023-02-25T23:09:40.517Z,3
2023-02-25T23:15:25.328Z,2.9
2023-02-25T23:20:40.972Z,2.8
2023-02-25T23:26:38.794Z,2.8
2023-02-25T23:31:58.059Z,2.8
2023-02-25T23:37:19.593Z,2.6
2023-02-25T23:43:02.918Z,2.5
2023-02-25T23:48:42.021Z,2.3
2023-02-25T23:54:22.585Z,2.4
2023-02-25T23:59:44.548Z,2.2
